sensor_id;sensor_type;location;lat;lon;timestamp;pressure;altitude;pressure_sealevel;temperature;humidity
47220;BME280;32961;51.936;4.788;2023-09-12T00:00:26;101289.44;;;20.66;98.35
47220;BME280;32961;51.936;4.788;2023-09-12T00:02:54;101284.97;;;20.65;98.17
47220;BME280;32961;51.936;4.788;2023-09-12T00:05:21;101284.31;;;20.63;98.32
47220;BME280;32961;51.936;4.788;2023-09-12T00:07:53;101282.59;;;20.62;98.34
47220;BME280;32961;51.936;4.788;2023-09-12T00:10:21;101275.56;;;20.60;98.31
47220;BME280;32961;51.936;4.788;2023-09-12T00:12:49;101281.50;;;20.57;98.52
47220;BME280;32961;51.936;4.788;2023-09-12T00:15:16;101275.13;;;20.56;98.64
47220;BME280;32961;51.936;4.788;2023-09-12T00:17:46;101276.38;;;20.53;98.75
47220;BME280;32961;51.936;4.788;2023-09-12T00:20:15;101277.63;;;20.51;98.78
47220;BME280;32961;51.936;4.788;2023-09-12T00:22:43;101272.31;;;20.49;99.28
47220;BME280;32961;51.936;4.788;2023-09-12T00:25:12;101276.13;;;20.48;99.43
47220;BME280;32961;51.936;4.788;2023-09-12T00:27:40;101274.63;;;20.46;99.53
47220;BME280;32961;51.936;4.788;2023-09-12T00:30:08;101263.97;;;20.43;99.64
47220;BME280;32961;51.936;4.788;2023-09-12T00:32:36;101264.19;;;20.41;99.74
47220;BME280;32961;51.936;4.788;2023-09-12T00:35:04;101267.16;;;20.40;99.93
47220;BME280;32961;51.936;4.788;2023-09-12T00:37:32;101268.19;;;20.39;99.92
47220;BME280;32961;51.936;4.788;2023-09-12T00:40:00;101270.50;;;20.35;100.00
47220;BME280;32961;51.936;4.788;2023-09-12T00:42:30;101269.84;;;20.33;100.00
47220;BME280;32961;51.936;4.788;2023-09-12T00:44:58;101273.22;;;20.28;100.00
47220;BME280;32961;51.936;4.788;2023-09-12T00:47:27;101270.63;;;20.27;100.00
47220;BME280;32961;51.936;4.788;2023-09-12T00:49:56;101272.56;;;20.26;100.00
47220;BME280;32961;51.936;4.788;2023-09-12T00:52:26;101269.13;;;20.24;100.00
47220;BME280;32961;51.936;4.788;2023-09-12T00:54:55;101266.56;;;20.23;100.00
47220;BME280;32961;51.936;4.788;2023-09-12T00:57:23;101260.41;;;20.20;100.00
47220;BME280;32961;51.936;4.788;2023-09-12T00:59:54;101255.91;;;20.19;100.00
47220;BME280;32961;51.936;4.788;2023-09-12T01:02:22;101251.47;;;20.18;100.00
47220;BME280;32961;51.936;4.788;2023-09-12T01:04:50;101258.25;;;20.16;100.00
47220;BME280;32961;51.936;4.788;2023-09-12T01:07:19;101255.88;;;20.13;100.00
47220;BME280;32961;51.936;4.788;2023-09-12T01:12:19;101256.47;;;20.08;100.00
47220;BME280;32961;51.936;4.788;2023-09-12T01:14:47;101246.00;;;20.03;100.00
47220;BME280;32961;51.936;4.788;2023-09-12T01:17:17;101244.72;;;19.99;100.00
47220;BME280;32961;51.936;4.788;2023-09-12T01:19:45;101232.56;;;19.94;100.00
47220;BME280;32961;51.936;4.788;2023-09-12T01:22:30;101244.03;;;19.97;100.00
47220;BME280;32961;51.936;4.788;2023-09-12T01:25:21;101247.88;;;19.96;100.00
47220;BME280;32961;51.936;4.788;2023-09-12T01:28:00;101244.47;;;19.94;100.00
47220;BME280;32961;51.936;4.788;2023-09-12T01:30:31;101255.28;;;19.96;100.00
47220;BME280;32961;51.936;4.788;2023-09-12T01:33:00;101258.03;;;19.96;100.00
47220;BME280;32961;51.936;4.788;2023-09-12T01:35:28;101249.97;;;19.94;100.00
47220;BME280;32961;51.936;4.788;2023-09-12T01:37:56;101251.22;;;19.92;100.00
47220;BME280;32961;51.936;4.788;2023-09-12T01:40:42;101256.47;;;19.86;100.00
47220;BME280;32961;51.936;4.788;2023-09-12T01:43:17;101254.09;;;19.83;100.00
47220;BME280;32961;51.936;4.788;2023-09-12T01:45:45;101254.94;;;19.84;100.00
47220;BME280;32961;51.936;4.788;2023-09-12T01:48:18;101244.97;;;19.83;100.00
47220;BME280;32961;51.936;4.788;2023-09-12T01:50:47;101240.47;;;19.82;100.00
47220;BME280;32961;51.936;4.788;2023-09-12T01:53:16;101249.13;;;19.79;100.00
47220;BME280;32961;51.936;4.788;2023-09-12T01:55:45;101252.31;;;19.76;100.00
47220;BME280;32961;51.936;4.788;2023-09-12T01:58:14;101245.44;;;19.71;100.00
47220;BME280;32961;51.936;4.788;2023-09-12T02:00:42;101247.94;;;19.66;100.00
47220;BME280;32961;51.936;4.788;2023-09-12T02:03:10;101256.00;;;19.68;100.00
47220;BME280;32961;51.936;4.788;2023-09-12T02:05:38;101262.78;;;19.65;100.00
47220;BME280;32961;51.936;4.788;2023-09-12T02:08:07;101258.72;;;19.61;100.00
47220;BME280;32961;51.936;4.788;2023-09-12T02:10:35;101272.50;;;19.61;100.00
47220;BME280;32961;51.936;4.788;2023-09-12T02:13:03;101260.78;;;19.59;100.00
47220;BME280;32961;51.936;4.788;2023-09-12T02:15:32;101264.78;;;19.56;100.00
47220;BME280;32961;51.936;4.788;2023-09-12T02:18:00;101266.88;;;19.54;100.00
47220;BME280;32961;51.936;4.788;2023-09-12T02:20:28;101262.16;;;19.48;100.00
47220;BME280;32961;51.936;4.788;2023-09-12T02:22:56;101260.00;;;19.44;100.00
47220;BME280;32961;51.936;4.788;2023-09-12T02:25:24;101255.25;;;19.37;100.00
47220;BME280;32961;51.936;4.788;2023-09-12T02:27:51;101259.22;;;19.35;100.00
47220;BME280;32961;51.936;4.788;2023-09-12T02:30:19;101259.81;;;19.30;100.00
47220;BME280;32961;51.936;4.788;2023-09-12T02:32:49;101254.69;;;19.27;100.00
47220;BME280;32961;51.936;4.788;2023-09-12T02:35:17;101259.53;;;19.25;100.00
47220;BME280;32961;51.936;4.788;2023-09-12T02:37:45;101261.44;;;19.24;100.00
47220;BME280;32961;51.936;4.788;2023-09-12T02:40:12;101265.44;;;19.22;100.00
47220;BME280;32961;51.936;4.788;2023-09-12T02:42:41;101256.50;;;19.20;100.00
47220;BME280;32961;51.936;4.788;2023-09-12T02:45:09;101262.88;;;19.20;100.00
47220;BME280;32961;51.936;4.788;2023-09-12T02:47:37;101254.78;;;19.19;100.00
47220;BME280;32961;51.936;4.788;2023-09-12T02:50:07;101244.16;;;19.16;100.00
47220;BME280;32961;51.936;4.788;2023-09-12T02:52:35;101238.47;;;19.17;100.00
47220;BME280;32961;51.936;4.788;2023-09-12T02:55:04;101238.19;;;19.12;100.00
47220;BME280;32961;51.936;4.788;2023-09-12T02:57:32;101250.72;;;19.15;100.00
47220;BME280;32961;51.936;4.788;2023-09-12T03:00:00;101255.53;;;19.13;100.00
47220;BME280;32961;51.936;4.788;2023-09-12T03:02:28;101251.13;;;19.12;100.00
47220;BME280;32961;51.936;4.788;2023-09-12T03:04:56;101242.38;;;19.08;100.00
47220;BME280;32961;51.936;4.788;2023-09-12T03:07:25;101244.72;;;19.11;100.00
47220;BME280;32961;51.936;4.788;2023-09-12T03:09:53;101233.25;;;19.07;100.00
47220;BME280;32961;51.936;4.788;2023-09-12T03:12:21;101231.94;;;19.03;100.00
47220;BME280;32961;51.936;4.788;2023-09-12T03:14:48;101240.47;;;19.08;100.00
47220;BME280;32961;51.936;4.788;2023-09-12T03:17:16;101238.75;;;19.07;100.00
47220;BME280;32961;51.936;4.788;2023-09-12T03:19:44;101234.47;;;19.05;100.00
47220;BME280;32961;51.936;4.788;2023-09-12T03:22:12;101232.78;;;19.04;100.00
47220;BME280;32961;51.936;4.788;2023-09-12T03:24:41;101241.50;;;19.07;100.00
47220;BME280;32961;51.936;4.788;2023-09-12T03:27:11;101232.97;;;19.02;100.00
47220;BME280;32961;51.936;4.788;2023-09-12T03:29:39;101242.94;;;19.03;100.00
47220;BME280;32961;51.936;4.788;2023-09-12T03:32:07;101234.88;;;19.02;100.00
47220;BME280;32961;51.936;4.788;2023-09-12T03:34:35;101234.00;;;19.01;100.00
47220;BME280;32961;51.936;4.788;2023-09-12T03:37:03;101238.69;;;19.01;100.00
47220;BME280;32961;51.936;4.788;2023-09-12T03:39:32;101243.16;;;19.02;100.00
47220;BME280;32961;51.936;4.788;2023-09-12T03:42:01;101246.75;;;19.02;100.00
47220;BME280;32961;51.936;4.788;2023-09-12T03:44:32;101245.69;;;19.03;100.00
47220;BME280;32961;51.936;4.788;2023-09-12T03:47:00;101238.28;;;19.04;100.00
47220;BME280;32961;51.936;4.788;2023-09-12T03:49:29;101235.31;;;19.05;100.00
47220;BME280;32961;51.936;4.788;2023-09-12T03:51:56;101217.97;;;19.05;100.00
47220;BME280;32961;51.936;4.788;2023-09-12T03:54:24;101229.53;;;19.00;100.00
47220;BME280;32961;51.936;4.788;2023-09-12T03:56:53;101227.81;;;18.99;100.00
47220;BME280;32961;51.936;4.788;2023-09-12T03:59:22;101243.16;;;19.02;100.00
47220;BME280;32961;51.936;4.788;2023-09-12T04:01:50;101253.69;;;18.98;100.00
47220;BME280;32961;51.936;4.788;2023-09-12T04:04:18;101247.50;;;18.96;100.00
47220;BME280;32961;51.936;4.788;2023-09-12T04:06:46;101241.38;;;18.86;100.00
47220;BME280;32961;51.936;4.788;2023-09-12T04:09:14;101257.84;;;18.94;100.00
47220;BME280;32961;51.936;4.788;2023-09-12T04:11:43;101251.69;;;18.92;100.00
47220;BME280;32961;51.936;4.788;2023-09-12T04:14:14;101245.13;;;18.93;100.00
47220;BME280;32961;51.936;4.788;2023-09-12T04:16:43;101241.53;;;18.92;100.00
47220;BME280;32961;51.936;4.788;2023-09-12T04:19:12;101249.22;;;18.97;100.00
47220;BME280;32961;51.936;4.788;2023-09-12T04:21:40;101253.00;;;18.96;100.00
47220;BME280;32961;51.936;4.788;2023-09-12T04:24:11;101248.34;;;18.97;100.00
47220;BME280;32961;51.936;4.788;2023-09-12T04:26:43;101247.31;;;18.98;100.00
47220;BME280;32961;51.936;4.788;2023-09-12T04:29:11;101244.56;;;18.98;100.00
47220;BME280;32961;51.936;4.788;2023-09-12T04:31:39;101242.00;;;18.96;100.00
47220;BME280;32961;51.936;4.788;2023-09-12T04:34:10;101242.00;;;18.96;100.00
47220;BME280;32961;51.936;4.788;2023-09-12T04:36:38;101242.84;;;18.97;100.00
47220;BME280;32961;51.936;4.788;2023-09-12T04:39:06;101248.34;;;18.97;100.00
47220;BME280;32961;51.936;4.788;2023-09-12T04:41:35;101237.72;;;18.94;100.00
47220;BME280;32961;51.936;4.788;2023-09-12T04:44:04;101234.56;;;18.97;100.00
47220;BME280;32961;51.936;4.788;2023-09-12T04:46:32;101234.56;;;18.97;100.00
47220;BME280;32961;51.936;4.788;2023-09-12T04:49:01;101229.78;;;18.90;100.00
47220;BME280;32961;51.936;4.788;2023-09-12T04:51:30;101232.03;;;18.95;100.00
47220;BME280;32961;51.936;4.788;2023-09-12T04:53:58;101237.31;;;18.97;100.00
47220;BME280;32961;51.936;4.788;2023-09-12T04:56:26;101237.16;;;18.98;100.00
47220;BME280;32961;51.936;4.788;2023-09-12T04:58:54;101228.44;;;18.95;100.00
47220;BME280;32961;51.936;4.788;2023-09-12T05:01:21;101230.59;;;18.99;100.00
47220;BME280;32961;51.936;4.788;2023-09-12T05:03:49;101230.78;;;18.98;100.00
47220;BME280;32961;51.936;4.788;2023-09-12T05:06:17;101237.63;;;19.02;100.00
47220;BME280;32961;51.936;4.788;2023-09-12T05:08:47;101238.28;;;19.04;100.00
47220;BME280;32961;51.936;4.788;2023-09-12T05:11:14;101237.91;;;19.07;100.00
47220;BME280;32961;51.936;4.788;2023-09-12T05:13:43;101237.03;;;19.06;100.00
47220;BME280;32961;51.936;4.788;2023-09-12T05:16:09;101234.13;;;19.08;100.00
47220;BME280;32961;51.936;4.788;2023-09-12T05:18:37;101232.19;;;19.08;100.00
47220;BME280;32961;51.936;4.788;2023-09-12T05:21:05;101232.00;;;19.10;100.00
47220;BME280;32961;51.936;4.788;2023-09-12T05:23:33;101224.63;;;19.11;100.00
47220;BME280;32961;51.936;4.788;2023-09-12T05:26:02;101225.44;;;19.11;100.00
47220;BME280;32961;51.936;4.788;2023-09-12T05:28:31;101226.50;;;19.10;100.00
47220;BME280;32961;51.936;4.788;2023-09-12T05:30:59;101235.78;;;19.09;100.00
47220;BME280;32961;51.936;4.788;2023-09-12T05:33:27;101226.03;;;19.06;100.00
47220;BME280;32961;51.936;4.788;2023-09-12T05:36:00;101232.56;;;19.05;100.00
47220;BME280;32961;51.936;4.788;2023-09-12T05:38:32;101240.84;;;19.05;100.00
47220;BME280;32961;51.936;4.788;2023-09-12T05:41:00;101237.91;;;19.07;100.00
47220;BME280;32961;51.936;4.788;2023-09-12T05:43:29;101239.44;;;19.10;100.00
47220;BME280;32961;51.936;4.788;2023-09-12T05:45:57;101244.53;;;19.13;100.00
47220;BME280;32961;51.936;4.788;2023-09-12T05:48:25;101247.75;;;19.16;100.00
47220;BME280;32961;51.936;4.788;2023-09-12T05:50:53;101242.72;;;19.20;100.00
47220;BME280;32961;51.936;4.788;2023-09-12T05:53:21;101232.94;;;19.17;100.00
47220;BME280;32961;51.936;4.788;2023-09-12T05:55:49;101244.06;;;19.24;100.00
47220;BME280;32961;51.936;4.788;2023-09-12T05:58:17;101241.78;;;19.28;100.00
47220;BME280;32961;51.936;4.788;2023-09-12T06:00:46;101241.59;;;19.29;100.00
47220;BME280;32961;51.936;4.788;2023-09-12T06:03:15;101239.50;;;19.31;100.00
47220;BME280;32961;51.936;4.788;2023-09-12T06:05:43;101247.75;;;19.31;100.00
47220;BME280;32961;51.936;4.788;2023-09-12T06:08:11;101243.94;;;19.32;100.00
47220;BME280;32961;51.936;4.788;2023-09-12T06:10:39;101254.78;;;19.34;100.00
47220;BME280;32961;51.936;4.788;2023-09-12T06:13:07;101254.59;;;19.35;100.00
47220;BME280;32961;51.936;4.788;2023-09-12T06:15:38;101250.97;;;19.35;100.00
47220;BME280;32961;51.936;4.788;2023-09-12T06:18:09;101254.59;;;19.35;100.00
47220;BME280;32961;51.936;4.788;2023-09-12T06:20:37;101260.78;;;19.37;100.00
47220;BME280;32961;51.936;4.788;2023-09-12T06:23:05;101258.00;;;19.37;100.00
47220;BME280;32961;51.936;4.788;2023-09-12T06:25:33;101250.13;;;19.34;100.00
47220;BME280;32961;51.936;4.788;2023-09-12T06:28:02;101261.81;;;19.36;100.00
47220;BME280;32961;51.936;4.788;2023-09-12T06:30:30;101265.41;;;19.37;100.00
47220;BME280;32961;51.936;4.788;2023-09-12T06:32:57;101259.22;;;19.35;100.00
47220;BME280;32961;51.936;4.788;2023-09-12T06:35:27;101268.34;;;19.35;100.00
47220;BME280;32961;51.936;4.788;2023-09-12T06:37:54;101264.94;;;19.33;100.00
47220;BME280;32961;51.936;4.788;2023-09-12T06:40:23;101271.47;;;19.32;100.00
47220;BME280;32961;51.936;4.788;2023-09-12T06:42:51;101284.22;;;19.33;100.00
47220;BME280;32961;51.936;4.788;2023-09-12T06:45:19;101277.66;;;19.34;100.00
47220;BME280;32961;51.936;4.788;2023-09-12T06:47:46;101281.47;;;19.33;100.00
47220;BME280;32961;51.936;4.788;2023-09-12T06:50:14;101278.50;;;19.35;100.00
47220;BME280;32961;51.936;4.788;2023-09-12T06:52:44;101285.38;;;19.39;100.00
47220;BME280;32961;51.936;4.788;2023-09-12T06:55:11;101272.06;;;19.43;100.00
47220;BME280;32961;51.936;4.788;2023-09-12T06:57:39;101269.94;;;19.45;100.00
47220;BME280;32961;51.936;4.788;2023-09-12T07:00:08;101268.31;;;19.50;100.00
47220;BME280;32961;51.936;4.788;2023-09-12T07:02:36;101268.31;;;19.50;100.00
47220;BME280;32961;51.936;4.788;2023-09-12T07:05:05;101270.31;;;19.56;100.00
47220;BME280;32961;51.936;4.788;2023-09-12T07:07:33;101274.19;;;19.62;100.00
47220;BME280;32961;51.936;4.788;2023-09-12T07:10:02;101279.31;;;19.65;100.00
47220;BME280;32961;51.936;4.788;2023-09-12T07:12:48;101267.91;;;19.68;100.00
47220;BME280;32961;51.936;4.788;2023-09-12T07:15:16;101261.34;;;19.69;100.00
47220;BME280;32961;51.936;4.788;2023-09-12T07:17:44;101264.56;;;19.73;100.00
47220;BME280;32961;51.936;4.788;2023-09-12T07:20:13;101272.91;;;19.80;100.00
47220;BME280;32961;51.936;4.788;2023-09-12T07:22:42;101279.75;;;19.84;100.00
47220;BME280;32961;51.936;4.788;2023-09-12T07:25:14;101271.78;;;19.89;100.00
47220;BME280;32961;51.936;4.788;2023-09-12T07:27:42;101271.09;;;19.87;100.00
47220;BME280;32961;51.936;4.788;2023-09-12T07:30:11;101273.75;;;19.95;100.00
47220;BME280;32961;51.936;4.788;2023-09-12T07:32:39;101272.09;;;20.01;100.00
47220;BME280;32961;51.936;4.788;2023-09-12T07:35:07;101276.81;;;20.07;100.00
47220;BME280;32961;51.936;4.788;2023-09-12T07:37:35;101290.91;;;20.12;100.00
47220;BME280;32961;51.936;4.788;2023-09-12T07:40:06;101287.53;;;20.17;100.00
47220;BME280;32961;51.936;4.788;2023-09-12T07:42:38;101288.59;;;20.16;100.00
47220;BME280;32961;51.936;4.788;2023-09-12T07:45:07;101283.72;;;20.18;100.00
47220;BME280;32961;51.936;4.788;2023-09-12T07:47:34;101295.66;;;20.25;100.00
47220;BME280;32961;51.936;4.788;2023-09-12T07:50:03;101294.63;;;20.26;100.00
47220;BME280;32961;51.936;4.788;2023-09-12T07:52:33;101285.50;;;20.26;100.00
47220;BME280;32961;51.936;4.788;2023-09-12T07:55:02;101290.16;;;20.25;100.00
47220;BME280;32961;51.936;4.788;2023-09-12T07:57:30;101284.59;;;20.18;100.00
47220;BME280;32961;51.936;4.788;2023-09-12T07:59:59;101292.72;;;20.27;100.00
47220;BME280;32961;51.936;4.788;2023-09-12T08:02:27;101298.09;;;20.35;100.00
47220;BME280;32961;51.936;4.788;2023-09-12T08:04:55;101295.41;;;20.42;100.00
47220;BME280;32961;51.936;4.788;2023-09-12T08:07:23;101298.41;;;20.47;100.00
47220;BME280;32961;51.936;4.788;2023-09-12T08:09:52;101292.75;;;20.55;100.00
47220;BME280;32961;51.936;4.788;2023-09-12T08:12:22;101298.53;;;20.60;100.00
47220;BME280;32961;51.936;4.788;2023-09-12T08:14:50;101302.38;;;20.66;100.00
47220;BME280;32961;51.936;4.788;2023-09-12T08:17:19;101305.75;;;20.61;100.00
47220;BME280;32961;51.936;4.788;2023-09-12T08:19:47;101312.34;;;20.60;100.00
47220;BME280;32961;51.936;4.788;2023-09-12T08:22:15;101310.03;;;20.64;100.00
47220;BME280;32961;51.936;4.788;2023-09-12T08:24:43;101308.31;;;20.63;100.00
47220;BME280;32961;51.936;4.788;2023-09-12T08:27:11;101314.09;;;20.68;100.00
47220;BME280;32961;51.936;4.788;2023-09-12T08:29:40;101314.19;;;20.75;100.00
47220;BME280;32961;51.936;4.788;2023-09-12T08:32:11;101316.16;;;20.81;100.00
47220;BME280;32961;51.936;4.788;2023-09-12T08:34:40;101308.31;;;20.84;100.00
47220;BME280;32961;51.936;4.788;2023-09-12T08:37:08;101317.91;;;20.95;100.00
47220;BME280;32961;51.936;4.788;2023-09-12T08:39:43;101319.00;;;20.94;100.00
47220;BME280;32961;51.936;4.788;2023-09-12T08:44:55;101318.34;;;20.92;100.00
47220;BME280;32961;51.936;4.788;2023-09-12T08:47:29;101305.09;;;20.81;100.00
47220;BME280;32961;51.936;4.788;2023-09-12T08:50:04;101321.75;;;20.94;100.00
47220;BME280;32961;51.936;4.788;2023-09-12T08:52:35;101317.31;;;21.00;100.00
47220;BME280;32961;51.936;4.788;2023-09-12T08:55:10;101317.97;;;21.02;100.00
47220;BME280;32961;51.936;4.788;2023-09-12T08:57:52;101319.94;;;21.08;100.00
47220;BME280;32961;51.936;4.788;2023-09-12T09:00:48;101281.69;;;20.77;100.00
47220;BME280;32961;51.936;4.788;2023-09-12T09:04:12;101319.03;;;21.01;100.00
47220;BME280;32961;51.936;4.788;2023-09-12T09:07:04;101269.66;;;20.84;100.00
47220;BME280;32961;51.936;4.788;2023-09-12T09:09:48;101296.53;;;21.04;100.00
47220;BME280;32961;51.936;4.788;2023-09-12T09:13:16;101305.16;;;21.23;100.00
47220;BME280;32961;51.936;4.788;2023-09-12T09:27:39;101283.44;;;21.61;100.00
47220;BME280;32961;51.936;4.788;2023-09-12T09:30:08;101327.59;;;21.96;100.00
47220;BME280;32961;51.936;4.788;2023-09-12T09:32:36;101326.97;;;22.01;99.63
47220;BME280;32961;51.936;4.788;2023-09-12T09:35:05;101334.00;;;22.04;98.83
47220;BME280;32961;51.936;4.788;2023-09-12T09:37:34;101329.25;;;21.91;97.09
47220;BME280;32961;51.936;4.788;2023-09-12T09:40:04;101327.38;;;21.91;98.72
47220;BME280;32961;51.936;4.788;2023-09-12T09:42:32;101330.56;;;22.02;99.05
47220;BME280;32961;51.936;4.788;2023-09-12T09:45:02;101335.28;;;22.08;99.15
47220;BME280;32961;51.936;4.788;2023-09-12T09:47:30;101337.19;;;22.14;98.32
47220;BME280;32961;51.936;4.788;2023-09-12T09:49:58;101335.31;;;22.21;98.25
47220;BME280;32961;51.936;4.788;2023-09-12T09:52:26;101335.13;;;22.30;98.58
47220;BME280;32961;51.936;4.788;2023-09-12T09:54:54;101338.75;;;22.37;98.56
47220;BME280;32961;51.936;4.788;2023-09-12T09:57:25;101337.72;;;22.38;97.11
47220;BME280;32961;51.936;4.788;2023-09-12T09:59:53;101326.84;;;22.43;96.94
47220;BME280;32961;51.936;4.788;2023-09-12T10:02:25;101336.22;;;22.55;96.59
47220;BME280;32961;51.936;4.788;2023-09-12T10:04:53;101341.75;;;22.42;95.76
47220;BME280;32961;51.936;4.788;2023-09-12T10:07:25;101333.63;;;22.34;94.35
47220;BME280;32961;51.936;4.788;2023-09-12T10:09:53;101330.91;;;22.47;95.41
47220;BME280;32961;51.936;4.788;2023-09-12T10:12:22;101328.53;;;22.71;96.03
47220;BME280;32961;51.936;4.788;2023-09-12T10:14:52;101331.31;;;22.91;94.86
47220;BME280;32961;51.936;4.788;2023-09-12T10:17:23;101324.88;;;23.04;91.63
47220;BME280;32961;51.936;4.788;2023-09-12T10:19:54;101334.69;;;23.20;91.19
47220;BME280;32961;51.936;4.788;2023-09-12T10:22:27;101335.97;;;23.24;89.29
47220;BME280;32961;51.936;4.788;2023-09-12T10:24:56;101323.59;;;23.06;89.71
47220;BME280;32961;51.936;4.788;2023-09-12T10:27:25;101332.16;;;23.18;90.48
47220;BME280;32961;51.936;4.788;2023-09-12T10:29:54;101339.63;;;23.18;90.11
47220;BME280;32961;51.936;4.788;2023-09-12T10:32:24;101337.28;;;23.21;90.09
47220;BME280;32961;51.936;4.788;2023-09-12T10:34:53;101329.56;;;23.30;90.82
47220;BME280;32961;51.936;4.788;2023-09-12T10:37:26;101320.75;;;23.47;90.55
47220;BME280;32961;51.936;4.788;2023-09-12T10:39:57;101323.00;;;23.70;89.70
47220;BME280;32961;51.936;4.788;2023-09-12T10:42:27;101316.94;;;23.93;88.28
47220;BME280;32961;51.936;4.788;2023-09-12T10:44:56;101315.66;;;23.96;85.70
47220;BME280;32961;51.936;4.788;2023-09-12T10:47:26;101315.28;;;23.79;81.87
47220;BME280;32961;51.936;4.788;2023-09-12T10:49:55;101312.66;;;23.45;83.27
47220;BME280;32961;51.936;4.788;2023-09-12T10:52:24;101310.66;;;23.66;85.44
47220;BME280;32961;51.936;4.788;2023-09-12T10:54:53;101301.75;;;23.57;81.04
47220;BME280;32961;51.936;4.788;2023-09-12T10:57:21;101294.50;;;23.49;83.24
47220;BME280;32961;51.936;4.788;2023-09-12T11:00:11;101296.94;;;23.78;84.20
47220;BME280;32961;51.936;4.788;2023-09-12T11:02:40;101293.00;;;23.99;84.04
47220;BME280;32961;51.936;4.788;2023-09-12T11:05:36;101290.81;;;24.08;81.46
47220;BME280;32961;51.936;4.788;2023-09-12T11:08:04;101283.72;;;24.12;82.92
47220;BME280;32961;51.936;4.788;2023-09-12T11:10:32;101283.44;;;24.27;82.39
47220;BME280;32961;51.936;4.788;2023-09-12T11:13:00;101287.63;;;24.36;80.90
47220;BME280;32961;51.936;4.788;2023-09-12T11:15:28;101277.78;;;24.40;80.35
47220;BME280;32961;51.936;4.788;2023-09-12T11:18:03;101288.97;;;24.52;79.03
47220;BME280;32961;51.936;4.788;2023-09-12T11:20:51;101288.66;;;24.67;78.34
47220;BME280;32961;51.936;4.788;2023-09-12T11:23:20;101295.31;;;24.66;77.73
47220;BME280;32961;51.936;4.788;2023-09-12T11:25:48;101298.41;;;24.76;78.07
47220;BME280;32961;51.936;4.788;2023-09-12T11:28:18;101297.66;;;24.62;72.88
47220;BME280;32961;51.936;4.788;2023-09-12T11:30:56;101304.41;;;24.73;76.91
47220;BME280;32961;51.936;4.788;2023-09-12T11:33:26;101292.88;;;24.95;77.05
47220;BME280;32961;51.936;4.788;2023-09-12T11:35:55;101297.22;;;25.09;76.58
47220;BME280;32961;51.936;4.788;2023-09-12T11:38:27;101302.41;;;25.24;76.87
47220;BME280;32961;51.936;4.788;2023-09-12T11:40:56;101297.38;;;25.33;76.50
47220;BME280;32961;51.936;4.788;2023-09-12T11:43:25;101306.53;;;24.96;71.57
47220;BME280;32961;51.936;4.788;2023-09-12T11:45:54;101310.56;;;24.25;74.76
47220;BME280;32961;51.936;4.788;2023-09-12T11:48:23;101300.66;;;24.35;77.26
47220;BME280;32961;51.936;4.788;2023-09-12T11:50:54;101309.59;;;24.12;74.89
47220;BME280;32961;51.936;4.788;2023-09-12T11:53:23;101310.88;;;24.42;76.96
47220;BME280;32961;51.936;4.788;2023-09-12T11:55:54;101315.25;;;24.81;76.38
47220;BME280;32961;51.936;4.788;2023-09-12T11:58:24;101312.34;;;25.13;75.15
47220;BME280;32961;51.936;4.788;2023-09-12T12:00:54;101317.19;;;25.43;74.10
47220;BME280;32961;51.936;4.788;2023-09-12T12:03:24;101308.97;;;25.67;73.43
47220;BME280;32961;51.936;4.788;2023-09-12T12:05:54;101309.16;;;25.84;72.71
47220;BME280;32961;51.936;4.788;2023-09-12T12:08:23;101310.91;;;25.97;71.27
47220;BME280;32961;51.936;4.788;2023-09-12T12:10:54;101303.72;;;26.08;71.43
47220;BME280;32961;51.936;4.788;2023-09-12T12:13:22;101310.91;;;26.16;68.12
47220;BME280;32961;51.936;4.788;2023-09-12T12:15:50;101312.34;;;26.18;69.90
47220;BME280;32961;51.936;4.788;2023-09-12T12:18:18;101311.53;;;26.30;68.79
47220;BME280;32961;51.936;4.788;2023-09-12T12:20:47;101302.25;;;26.48;69.17
47220;BME280;32961;51.936;4.788;2023-09-12T12:23:16;101295.69;;;26.66;68.38
47220;BME280;32961;51.936;4.788;2023-09-12T12:25:44;101295.69;;;26.66;66.88
47220;BME280;32961;51.936;4.788;2023-09-12T12:28:13;101295.41;;;26.20;66.44
47220;BME280;32961;51.936;4.788;2023-09-12T12:30:41;101289.31;;;26.11;67.18
47220;BME280;32961;51.936;4.788;2023-09-12T12:33:10;101294.19;;;26.16;67.69
47220;BME280;32961;51.936;4.788;2023-09-12T12:36:00;101282.16;;;26.03;63.96
47220;BME280;32961;51.936;4.788;2023-09-12T12:38:33;101280.44;;;26.02;67.18
47220;BME280;32961;51.936;4.788;2023-09-12T12:41:03;101285.97;;;26.21;68.00
47220;BME280;32961;51.936;4.788;2023-09-12T12:43:31;101290.13;;;26.42;67.01
47220;BME280;32961;51.936;4.788;2023-09-12T12:45:59;101285.16;;;26.56;66.40
47220;BME280;32961;51.936;4.788;2023-09-12T12:48:31;101278.25;;;26.70;66.04
47220;BME280;32961;51.936;4.788;2023-09-12T12:51:05;101276.34;;;26.83;65.94
47220;BME280;32961;51.936;4.788;2023-09-12T12:53:42;101289.44;;;26.94;65.30
47220;BME280;32961;51.936;4.788;2023-09-12T12:56:20;101277.31;;;26.88;64.08
47220;BME280;32961;51.936;4.788;2023-09-12T12:58:49;101272.97;;;26.81;64.24
47220;BME280;32961;51.936;4.788;2023-09-12T13:01:18;101272.09;;;26.80;64.52
47220;BME280;32961;51.936;4.788;2023-09-12T13:03:46;101281.03;;;26.47;62.99
47220;BME280;32961;51.936;4.788;2023-09-12T13:06:17;101275.16;;;26.13;64.67
47220;BME280;32961;51.936;4.788;2023-09-12T13:08:48;101270.72;;;25.93;65.32
47220;BME280;32961;51.936;4.788;2023-09-12T13:11:16;101272.03;;;25.60;65.29
47220;BME280;32961;51.936;4.788;2023-09-12T13:13:47;101271.34;;;25.65;66.86